createdAt,value
2023-06-07T00:00:18.805Z,1014.81
2023-06-07T00:01:18.831Z,1014.81
2023-06-07T00:02:29.659Z,1014.84
2023-06-07T00:03:19.073Z,1014.81
2023-06-07T00:04:19.098Z,1014.83
2023-06-07T00:05:18.973Z,1014.83
2023-06-07T00:06:19.014Z,1014.83
2023-06-07T00:07:19.046Z,1014.81
2023-06-07T00:08:19.097Z,1014.85
2023-06-07T00:09:19.127Z,1014.84
2023-06-07T00:10:19.172Z,1014.84
2023-06-07T00:11:19.191Z,1014.84
2023-06-07T00:12:19.228Z,1014.84
2023-06-07T00:13:19.263Z,1014.86
2023-06-07T00:14:19.305Z,1014.83
2023-06-07T00:15:19.341Z,1014.85
2023-06-07T00:16:19.372Z,1014.85
2023-06-07T00:17:19.466Z,1014.88
2023-06-07T00:18:19.516Z,1014.84
2023-06-07T00:19:19.481Z,1014.85
2023-06-07T00:20:19.523Z,1014.81
2023-06-07T00:21:19.553Z,1014.85
2023-06-07T00:22:19.616Z,1014.86
2023-06-07T00:23:19.638Z,1014.84
2023-06-07T00:24:19.777Z,1014.81
2023-06-07T00:25:19.703Z,1014.77
2023-06-07T00:26:19.735Z,1014.80
2023-06-07T00:27:19.801Z,1014.79
2023-06-07T00:28:19.806Z,1014.76
2023-06-07T00:29:19.849Z,1014.74
2023-06-07T00:30:19.934Z,1014.75
2023-06-07T00:31:20.005Z,1014.73
2023-06-07T00:32:19.952Z,1014.74
2023-06-07T00:33:19.995Z,1014.74
2023-06-07T00:34:20.057Z,1014.77
2023-06-07T00:35:20.072Z,1014.75
2023-06-07T00:36:20.108Z,1014.78
2023-06-07T00:37:20.136Z,1014.77
2023-06-07T00:38:20.214Z,1014.77
2023-06-07T00:39:20.208Z,1014.78
2023-06-07T00:40:20.252Z,1014.78
2023-06-07T00:41:20.311Z,1014.80
2023-06-07T00:42:20.321Z,1014.80
2023-06-07T00:43:20.355Z,1014.79
2023-06-07T00:44:20.405Z,1014.76
2023-06-07T00:45:20.431Z,1014.75
2023-06-07T00:46:20.465Z,1014.78
2023-06-07T00:47:20.529Z,1014.77
2023-06-07T00:48:20.633Z,1014.76
2023-06-07T00:49:20.575Z,1014.74
2023-06-07T00:50:20.613Z,1014.75
2023-06-07T00:51:20.646Z,1014.73
2023-06-07T00:52:20.681Z,1014.73
2023-06-07T00:53:20.727Z,1014.77
2023-06-07T00:54:20.778Z,1014.77
2023-06-07T00:55:20.787Z,1014.76
2023-06-07T00:56:20.829Z,1014.77
2023-06-07T00:57:20.878Z,1014.75
2023-06-07T00:58:20.909Z,1014.75
2023-06-07T00:59:20.936Z,1014.75
2023-06-07T01:00:20.977Z,1014.73
2023-06-07T01:01:21.028Z,1014.75
2023-06-07T01:02:21.118Z,1014.72
2023-06-07T01:03:21.142Z,1014.72
2023-06-07T01:04:21.114Z,1014.71
2023-06-07T01:05:21.161Z,1014.72
2023-06-07T01:06:21.191Z,1014.74
2023-06-07T01:07:21.224Z,1014.74
2023-06-07T01:08:21.262Z,1014.77
2023-06-07T01:09:21.311Z,1014.77
2023-06-07T01:10:21.331Z,1014.76
2023-06-07T01:11:21.366Z,1014.81
2023-06-07T01:12:21.400Z,1014.79
2023-06-07T01:13:21.440Z,1014.80
2023-06-07T01:14:21.517Z,1014.82
2023-06-07T01:15:21.511Z,1014.81
2023-06-07T01:16:21.577Z,1014.76
2023-06-07T01:17:21.608Z,1014.77
2023-06-07T01:18:21.628Z,1014.81
2023-06-07T01:19:21.682Z,1014.80
2023-06-07T01:20:21.696Z,1014.77
2023-06-07T01:21:21.729Z,1014.81
2023-06-07T01:22:21.771Z,1014.82
2023-06-07T01:23:21.809Z,1014.80
2023-06-07T01:24:21.862Z,1014.79
2023-06-07T01:25:21.880Z,1014.77
2023-06-07T01:26:21.908Z,1014.77
2023-06-07T01:27:21.941Z,1014.73
2023-06-07T01:28:21.979Z,1014.77
2023-06-07T01:29:22.022Z,1014.77
2023-06-07T01:30:22.055Z,1014.73
2023-06-07T01:31:22.115Z,1014.74
2023-06-07T01:32:22.145Z,1014.71
2023-06-07T01:33:22.157Z,1014.71
2023-06-07T01:34:22.205Z,1014.72
2023-06-07T01:35:22.244Z,1014.72
2023-06-07T01:36:22.273Z,1014.70
2023-06-07T01:37:22.300Z,1014.68
2023-06-07T01:38:22.340Z,1014.65
2023-06-07T01:39:22.372Z,1014.66
2023-06-07T01:40:22.415Z,1014.67
2023-06-07T01:41:22.442Z,1014.68
2023-06-07T01:42:22.479Z,1014.64
2023-06-07T01:43:22.514Z,1014.66
2023-06-07T01:44:22.580Z,1014.66
2023-06-07T01:45:22.592Z,1014.66
2023-06-07T01:46:22.673Z,1014.64
2023-06-07T01:47:22.678Z,1014.59
2023-06-07T01:48:22.701Z,1014.61
2023-06-07T01:49:22.751Z,1014.61
2023-06-07T01:50:22.779Z,1014.58
2023-06-07T01:51:22.813Z,1014.56
2023-06-07T01:52:22.847Z,1014.59
2023-06-07T01:53:22.884Z,1014.58
2023-06-07T01:54:22.918Z,1014.56
2023-06-07T01:55:22.962Z,1014.54
2023-06-07T01:56:22.987Z,1014.54
2023-06-07T01:57:23.028Z,1014.56
2023-06-07T01:58:23.068Z,1014.53
2023-06-07T01:59:23.107Z,1014.53
2023-06-07T02:00:23.129Z,1014.53
2023-06-07T02:01:23.227Z,1014.48
2023-06-07T02:02:23.208Z,1014.54
2023-06-07T02:03:23.273Z,1014.52
2023-06-07T02:04:23.281Z,1014.56
2023-06-07T02:05:23.314Z,1014.57
2023-06-07T02:06:23.344Z,1014.54
2023-06-07T02:07:23.383Z,1014.54
2023-06-07T02:08:23.418Z,1014.52
2023-06-07T02:09:23.456Z,1014.54
2023-06-07T02:10:23.489Z,1014.54
2023-06-07T02:11:23.543Z,1014.57
2023-06-07T02:12:23.579Z,1014.56
2023-06-07T02:13:23.598Z,1014.52
2023-06-07T02:14:23.646Z,1014.54
2023-06-07T02:15:23.685Z,1014.50
2023-06-07T02:16:23.705Z,1014.52
2023-06-07T02:17:23.859Z,1014.49
2023-06-07T02:18:23.838Z,1014.45
2023-06-07T02:19:23.813Z,1014.50
2023-06-07T02:20:23.847Z,1014.47
2023-06-07T02:21:23.888Z,1014.49
2023-06-07T02:22:23.927Z,1014.46
2023-06-07T02:23:23.984Z,1014.48
2023-06-07T02:24:24.023Z,1014.49
2023-06-07T02:25:24.040Z,1014.45
2023-06-07T02:26:24.069Z,1014.46
2023-06-07T02:27:24.103Z,1014.48
2023-06-07T02:28:24.147Z,1014.46
2023-06-07T02:29:24.173Z,1014.45
2023-06-07T02:30:24.210Z,1014.47
2023-06-07T02:31:24.304Z,1014.45
2023-06-07T02:32:24.318Z,1014.46
2023-06-07T02:33:24.330Z,1014.45
2023-06-07T02:34:24.355Z,1014.48
2023-06-07T02:35:24.389Z,1014.47
2023-06-07T02:36:24.425Z,1014.44
2023-06-07T02:37:24.460Z,1014.47
2023-06-07T02:38:24.505Z,1014.46
2023-06-07T02:39:24.547Z,1014.44
2023-06-07T02:40:24.567Z,1014.43
2023-06-07T02:41:24.601Z,1014.47
2023-06-07T02:42:24.640Z,1014.47
2023-06-07T02:43:24.678Z,1014.49
2023-06-07T02:44:24.710Z,1014.45
2023-06-07T02:45:24.749Z,1014.46
2023-06-07T02:46:24.877Z,1014.45
2023-06-07T02:47:24.890Z,1014.46
2023-06-07T02:48:24.870Z,1014.44
2023-06-07T02:49:24.897Z,1014.45
2023-06-07T02:50:24.931Z,1014.44
2023-06-07T02:51:24.973Z,1014.47
2023-06-07T02:52:24.993Z,1014.47
2023-06-07T02:53:25.030Z,1014.46
2023-06-07T02:54:25.069Z,1014.47
2023-06-07T02:55:25.100Z,1014.47
2023-06-07T02:56:25.181Z,1014.47
2023-06-07T02:57:25.173Z,1014.47
2023-06-07T02:58:25.211Z,1014.49
2023-06-07T02:59:25.245Z,1014.48
2023-06-07T03:00:25.284Z,1014.44
2023-06-07T03:01:25.345Z,1014.48
2023-06-07T03:02:25.400Z,1014.46
2023-06-07T03:03:25.454Z,1014.47
2023-06-07T03:04:25.421Z,1014.46
2023-06-07T03:05:25.464Z,1014.41
2023-06-07T03:06:25.499Z,1014.46
2023-06-07T03:07:25.531Z,1014.45
2023-06-07T03:08:25.567Z,1014.41
2023-06-07T03:09:25.604Z,1014.47
2023-06-07T03:10:25.642Z,1014.46
2023-06-07T03:11:25.672Z,1014.46
2023-06-07T03:12:25.708Z,1014.49
2023-06-07T03:13:25.756Z,1014.47
2023-06-07T03:14:25.791Z,1014.50
2023-06-07T03:15:25.812Z,1014.50
2023-06-07T03:16:25.907Z,1014.52
2023-06-07T03:17:25.948Z,1014.51
2023-06-07T03:18:26.739Z,1014.51
2023-06-07T03:19:25.959Z,1014.51
2023-06-07T03:20:26.023Z,1014.50
2023-06-07T03:21:26.042Z,1014.51
2023-06-07T03:22:26.068Z,1014.51
2023-06-07T03:23:26.152Z,1014.50
2023-06-07T03:24:26.147Z,1014.52
2023-06-07T03:25:26.194Z,1014.52
2023-06-07T03:26:26.214Z,1014.49
2023-06-07T03:27:26.245Z,1014.50
2023-06-07T03:28:26.289Z,1014.49
2023-06-07T03:29:26.328Z,1014.53
2023-06-07T03:30:26.360Z,1014.49
2023-06-07T03:31:26.516Z,1014.55
2023-06-07T03:32:26.451Z,1014.53
2023-06-07T03:33:26.462Z,1014.53
2023-06-07T03:34:26.498Z,1014.57
2023-06-07T03:35:26.532Z,1014.54
2023-06-07T03:36:26.576Z,1014.55
2023-06-07T03:37:26.607Z,1014.58
2023-06-07T03:38:26.661Z,1014.58
2023-06-07T03:39:26.678Z,1014.61
2023-06-07T03:40:26.716Z,1014.59
2023-06-07T03:41:26.749Z,1014.60
2023-06-07T03:42:26.784Z,1014.60
2023-06-07T03:43:26.828Z,1014.61
2023-06-07T03:44:26.857Z,1014.61
2023-06-07T03:45:26.890Z,1014.58
2023-06-07T03:46:26.926Z,1014.61
2023-06-07T03:47:26.973Z,1014.58
2023-06-07T03:48:27.054Z,1014.60
2023-06-07T03:49:27.046Z,1014.62
2023-06-07T03:50:27.081Z,1014.62
2023-06-07T03:51:27.106Z,1014.60
2023-06-07T03:52:27.146Z,1014.64
2023-06-07T03:53:27.187Z,1014.61
2023-06-07T03:54:27.213Z,1014.58
2023-06-07T03:55:27.342Z,1014.60
2023-06-07T03:56:27.282Z,1014.62
2023-06-07T03:57:27.318Z,1014.62
2023-06-07T03:58:27.356Z,1014.63
2023-06-07T03:59:27.430Z,1014.62
2023-06-07T04:00:27.426Z,1014.60
2023-06-07T04:01:27.462Z,1014.66
2023-06-07T04:02:27.566Z,1014.63
2023-06-07T04:03:27.640Z,1014.65
2023-06-07T04:04:27.621Z,1014.63
2023-06-07T04:05:27.675Z,1014.65
2023-06-07T04:06:27.639Z,1014.63
2023-06-07T04:07:27.682Z,1014.62
2023-06-07T04:08:27.713Z,1014.63
2023-06-07T04:09:27.755Z,1014.59
2023-06-07T04:10:27.827Z,1014.61
2023-06-07T04:11:27.819Z,1014.62
2023-06-07T04:12:27.852Z,1014.62
2023-06-07T04:13:27.887Z,1014.65
2023-06-07T04:14:27.936Z,1014.65
2023-06-07T04:15:27.991Z,1014.65
2023-06-07T04:16:28.059Z,1014.65
2023-06-07T04:17:28.169Z,1014.64
2023-06-07T04:18:28.081Z,1014.64
2023-06-07T04:19:28.104Z,1014.64
2023-06-07T04:20:28.144Z,1014.64
2023-06-07T04:21:28.183Z,1014.64
2023-06-07T04:22:28.218Z,1014.62
2023-06-07T04:23:28.280Z,1014.62
2023-06-07T04:24:28.298Z,1014.62
2023-06-07T04:25:28.345Z,1014.60
2023-06-07T04:26:28.356Z,1014.63
2023-06-07T04:27:28.398Z,1014.61
2023-06-07T04:28:28.424Z,1014.63
2023-06-07T04:29:28.473Z,1014.60
2023-06-07T04:30:28.508Z,1014.64
2023-06-07T04:31:28.628Z,1014.61
2023-06-07T04:32:28.616Z,1014.63
2023-06-07T04:33:28.615Z,1014.61
2023-06-07T04:34:28.637Z,1014.64
2023-06-07T04:35:28.677Z,1014.65
2023-06-07T04:36:28.716Z,1014.63
2023-06-07T04:37:28.776Z,1014.64
2023-06-07T04:38:28.781Z,1014.63
2023-06-07T04:39:28.815Z,1014.67
2023-06-07T04:40:28.856Z,1014.59
2023-06-07T04:41:28.888Z,1014.64
2023-06-07T04:42:28.929Z,1014.59
2023-06-07T04:43:28.960Z,1014.62
2023-06-07T04:44:29.061Z,1014.59
2023-06-07T04:45:29.030Z,1014.59
2023-06-07T04:46:29.185Z,1014.58
2023-06-07T04:47:29.121Z,1014.59
2023-06-07T04:48:29.151Z,1014.62
2023-06-07T04:49:29.175Z,1014.61
2023-06-07T04:50:29.217Z,1014.64
2023-06-07T04:51:29.244Z,1014.63
2023-06-07T04:52:29.739Z,1014.61
2023-06-07T04:53:29.314Z,1014.64
2023-06-07T04:54:29.385Z,1014.65
2023-06-07T04:55:29.394Z,1014.63
2023-06-07T04:56:29.436Z,1014.64
2023-06-07T04:57:29.545Z,1014.66
2023-06-07T04:58:29.520Z,1014.69
2023-06-07T04:59:29.540Z,1014.66
2023-06-07T05:00:29.586Z,1014.66
2023-06-07T05:01:29.674Z,1014.69
2023-06-07T05:02:29.686Z,1014.67
2023-06-07T05:03:29.680Z,1014.69
2023-06-07T05:04:29.718Z,1014.67
2023-06-07T05:05:29.781Z,1014.64
2023-06-07T05:06:29.997Z,1014.68
2023-06-07T05:07:29.815Z,1014.65
2023-06-07T05:08:29.856Z,1014.67
2023-06-07T05:09:30.868Z,1014.67
2023-06-07T05:10:29.925Z,1014.63
2023-06-07T05:11:29.959Z,1014.64
2023-06-07T05:12:30.000Z,1014.63
2023-06-07T05:13:30.039Z,1014.69
2023-06-07T05:14:30.072Z,1014.71
2023-06-07T05:15:30.116Z,1014.71
2023-06-07T05:16:30.251Z,1014.74
2023-06-07T05:17:30.207Z,1014.75
2023-06-07T05:18:30.227Z,1014.73
2023-06-07T05:19:30.251Z,1014.77
2023-06-07T05:20:30.297Z,1014.76
2023-06-07T05:21:30.330Z,1014.75
2023-06-07T05:22:30.359Z,1014.79
2023-06-07T05:23:30.464Z,1014.76
2023-06-07T05:24:30.476Z,1014.75
2023-06-07T05:25:30.474Z,1014.75
2023-06-07T05:26:30.505Z,1014.73
2023-06-07T05:27:30.544Z,1014.76
2023-06-07T05:28:30.574Z,1014.74
2023-06-07T05:29:30.650Z,1014.75
2023-06-07T05:30:37.965Z,1014.76
2023-06-07T05:32:23.853Z,1014.77
2023-06-07T05:33:23.881Z,1014.78
2023-06-07T05:35:27.923Z,1014.81
2023-06-07T05:36:27.966Z,1014.80
2023-06-07T05:38:21.153Z,1014.78
2023-06-07T05:39:21.148Z,1014.76
2023-06-07T05:41:14.308Z,1014.78
2023-06-07T05:42:14.342Z,1014.81
2023-06-07T05:44:07.535Z,1014.78
2023-06-07T05:45:07.575Z,1014.80
2023-06-07T05:47:00.739Z,1014.77
2023-06-07T05:48:00.905Z,1014.82
2023-06-07T05:49:53.920Z,1014.75
2023-06-07T05:50:53.949Z,1014.78
2023-06-07T05:51:53.988Z,1014.77
2023-06-07T05:52:54.023Z,1014.78
2023-06-07T05:53:54.058Z,1014.77
2023-06-07T05:54:54.091Z,1014.79
2023-06-07T05:55:54.136Z,1014.80
2023-06-07T05:56:54.467Z,1014.81
2023-06-07T05:57:54.210Z,1014.80
2023-06-07T05:58:54.246Z,1014.78
2023-06-07T05:59:54.279Z,1014.81
2023-06-07T06:00:54.472Z,1014.80
2023-06-07T06:01:54.352Z,1014.81
2023-06-07T06:02:54.778Z,1014.82
2023-06-07T06:03:54.421Z,1014.80
2023-06-07T06:04:54.514Z,1014.78
2023-06-07T06:05:54.500Z,1014.79
2023-06-07T06:06:54.532Z,1014.76
2023-06-07T06:07:54.569Z,1014.80
2023-06-07T06:08:54.600Z,1014.79
2023-06-07T06:09:54.640Z,1014.82
2023-06-07T06:10:54.681Z,1014.83
2023-06-07T06:11:54.709Z,1014.82
2023-06-07T06:12:54.750Z,1014.84
2023-06-07T06:13:54.792Z,1014.85
2023-06-07T06:14:54.817Z,1014.81
2023-06-07T06:15:54.862Z,1014.87
2023-06-07T06:16:54.991Z,1014.83
2023-06-07T06:17:55.266Z,1014.85
2023-06-07T06:18:54.964Z,1014.80
2023-06-07T06:19:55.005Z,1014.85
2023-06-07T06:20:55.046Z,1014.86
2023-06-07T06:21:55.090Z,1014.80
2023-06-07T06:22:55.117Z,1014.81
2023-06-07T06:23:55.169Z,1014.84
2023-06-07T06:24:55.182Z,1014.84
2023-06-07T06:25:55.218Z,1014.87
2023-06-07T06:26:55.255Z,1014.90
2023-06-07T06:27:55.380Z,1014.90
2023-06-07T06:28:55.346Z,1014.89
2023-06-07T06:29:55.374Z,1014.90
2023-06-07T06:30:55.428Z,1014.94
2023-06-07T06:31:55.444Z,1014.97
2023-06-07T06:32:55.546Z,1014.94
2023-06-07T06:33:55.512Z,1014.94
2023-06-07T06:34:55.547Z,1014.99
2023-06-07T06:35:55.599Z,1014.96
2023-06-07T06:36:55.621Z,1014.98
2023-06-07T06:37:55.662Z,1015.00
2023-06-07T06:38:55.713Z,1014.98
2023-06-07T06:39:55.747Z,1014.98
2023-06-07T06:40:55.767Z,1014.95
2023-06-07T06:41:55.813Z,1014.99
2023-06-07T06:42:55.848Z,1015.00
2023-06-07T06:43:55.877Z,1014.98
2023-06-07T06:44:55.927Z,1015.00
2023-06-07T06:45:55.949Z,1014.98
2023-06-07T06:46:56.022Z,1015.01
2023-06-07T06:47:56.082Z,1015.03
2023-06-07T06:49:11.426Z,1015.02
2023-06-07T06:49:56.095Z,1015.05
2023-06-07T06:50:56.138Z,1015.02
2023-06-07T06:51:56.185Z,1015.02
2023-06-07T06:52:56.205Z,1015.03
2023-06-07T06:53:56.241Z,1015.04
2023-06-07T06:54:56.294Z,1015.09
2023-06-07T06:55:56.316Z,1015.11
2023-06-07T06:56:56.404Z,1015.09
2023-06-07T06:57:56.647Z,1015.08
2023-06-07T06:58:56.428Z,1015.06
2023-06-07T06:59:56.479Z,1015.08
2023-06-07T07:00:56.510Z,1015.09
2023-06-07T07:01:56.550Z,1015.07
2023-06-07T07:02:56.630Z,1015.09
2023-06-07T07:03:56.678Z,1015.05
2023-06-07T07:04:56.689Z,1015.08
2023-06-07T07:05:56.691Z,1015.06
2023-06-07T07:06:56.724Z,1015.07
2023-06-07T07:07:56.761Z,1015.06
2023-06-07T07:08:56.802Z,1015.04
2023-06-07T07:09:56.841Z,1015.04
2023-06-07T07:10:56.881Z,1015.03
2023-06-07T07:11:56.912Z,1014.99
2023-06-07T07:12:56.949Z,1015.02
2023-06-07T07:13:56.984Z,1015.02
2023-06-07T07:14:57.024Z,1015.02
2023-06-07T07:15:57.096Z,1015.03
2023-06-07T07:16:57.180Z,1015.03
2023-06-07T07:17:57.143Z,1015.04
2023-06-07T07:18:57.177Z,1015.05
2023-06-07T07:19:57.217Z,1015.04
2023-06-07T07:20:57.269Z,1015.01
2023-06-07T07:21:57.283Z,1015.01
2023-06-07T07:22:57.322Z,1015.03
2023-06-07T07:23:57.402Z,1015.02
2023-06-07T07:24:57.397Z,1015.01
2023-06-07T07:25:57.434Z,1015.00
2023-06-07T07:26:57.604Z,1015.02
2023-06-07T07:27:57.509Z,1015.02
2023-06-07T07:28:57.546Z,1015.03
2023-06-07T07:29:57.589Z,1015.03
2023-06-07T07:30:57.619Z,1015.09
2023-06-07T07:31:57.661Z,1015.05
2023-06-07T07:32:57.789Z,1015.04
2023-06-07T07:33:57.733Z,1015.06
2023-06-07T07:34:57.837Z,1015.06
2023-06-07T07:35:57.874Z,1015.12
2023-06-07T07:36:57.870Z,1015.12
2023-06-07T07:37:57.880Z,1015.08
2023-06-07T07:38:57.919Z,1015.09
2023-06-07T07:39:57.973Z,1015.09
2023-06-07T07:40:58.002Z,1015.08
2023-06-07T07:41:58.030Z,1015.09
2023-06-07T07:42:58.073Z,1015.13
2023-06-07T07:43:58.117Z,1015.13
2023-06-07T07:44:58.144Z,1015.14
2023-06-07T07:45:58.238Z,1015.09
2023-06-07T07:46:58.217Z,1015.16
2023-06-07T07:47:58.292Z,1015.12
2023-06-07T07:48:58.299Z,1015.11
2023-06-07T07:49:58.330Z,1015.08
2023-06-07T07:50:58.406Z,1015.11
2023-06-07T07:51:58.405Z,1015.10
2023-06-07T07:52:58.509Z,1015.09
2023-06-07T07:53:58.492Z,1015.14
2023-06-07T07:54:58.528Z,1015.14
2023-06-07T07:55:58.561Z,1015.10
2023-06-07T07:56:58.606Z,1015.12
2023-06-07T07:57:58.636Z,1015.09
2023-06-07T07:58:58.674Z,1015.07
2023-06-07T07:59:58.714Z,1015.03
2023-06-07T08:00:58.748Z,1015.08
2023-06-07T08:01:58.796Z,1015.03
2023-06-07T08:02:58.923Z,1015.05
2023-06-07T08:03:58.929Z,1015.05
2023-06-07T08:04:58.947Z,1015.05
2023-06-07T08:05:58.942Z,1015.06
2023-06-07T08:06:58.972Z,1015.05
2023-06-07T08:07:59.017Z,1015.08
2023-06-07T08:08:59.125Z,1015.11
2023-06-07T08:09:59.093Z,1015.08
2023-06-07T08:10:59.127Z,1015.05
2023-06-07T08:11:59.166Z,1015.09
2023-06-07T08:12:59.208Z,1015.03
2023-06-07T08:13:59.240Z,1015.02
2023-06-07T08:14:59.301Z,1015.02
2023-06-07T08:15:59.352Z,1015.00
2023-06-07T08:16:59.360Z,1015.02
2023-06-07T08:17:59.391Z,1015.01
2023-06-07T08:18:59.450Z,1015.00
2023-06-07T08:19:59.466Z,1015.01
2023-06-07T08:20:59.504Z,1015.02
2023-06-07T08:21:59.543Z,1015.01
2023-06-07T08:22:59.583Z,1015.00
2023-06-07T08:23:59.661Z,1015.01
2023-06-07T08:24:59.767Z,1015.00
2023-06-07T08:25:59.695Z,1014.94
2023-06-07T08:26:59.746Z,1014.93
2023-06-07T08:27:59.776Z,1014.94
2023-06-07T08:28:59.820Z,1014.91
2023-06-07T08:29:59.848Z,1014.93
2023-06-07T08:30:59.902Z,1014.93
2023-06-07T08:32:00.036Z,1014.96
2023-06-07T08:33:00.013Z,1014.95
2023-06-07T08:34:00.004Z,1014.91
2023-06-07T08:35:00.053Z,1014.95
2023-06-07T08:36:00.084Z,1014.92
2023-06-07T08:37:00.121Z,1014.93
2023-06-07T08:38:00.170Z,1014.92
2023-06-07T08:39:00.195Z,1014.93
2023-06-07T08:40:00.228Z,1014.90
2023-06-07T08:41:00.272Z,1014.97
2023-06-07T08:42:00.305Z,1014.92
2023-06-07T08:43:00.348Z,1014.92
2023-06-07T08:44:00.384Z,1014.91
2023-06-07T08:45:00.424Z,1014.90
2023-06-07T08:46:00.532Z,1014.90
2023-06-07T08:47:00.508Z,1014.93
2023-06-07T08:48:00.577Z,1014.90
2023-06-07T08:49:00.579Z,1014.91
2023-06-07T08:50:00.613Z,1014.91
2023-06-07T08:51:00.656Z,1014.92
2023-06-07T08:52:14.975Z,1014.90
2023-06-07T08:53:00.728Z,1014.90
2023-06-07T08:54:00.767Z,1014.92
2023-06-07T08:55:00.820Z,1014.89
2023-06-07T08:56:00.842Z,1014.93
2023-06-07T08:57:00.964Z,1014.89
2023-06-07T08:58:00.926Z,1014.90
2023-06-07T08:59:00.964Z,1014.88
2023-06-07T09:00:01.026Z,1014.86
2023-06-07T09:01:01.087Z,1014.85
2023-06-07T09:02:01.091Z,1014.91
2023-06-07T09:03:01.251Z,1014.89
2023-06-07T09:04:01.168Z,1014.90
2023-06-07T09:05:01.193Z,1014.88
2023-06-07T09:06:01.227Z,1014.91
2023-06-07T09:07:01.265Z,1014.92
2023-06-07T09:08:01.316Z,1014.89
2023-06-07T09:09:01.400Z,1014.90
2023-06-07T09:10:01.384Z,1014.91
2023-06-07T09:11:01.426Z,1014.90
2023-06-07T09:12:01.465Z,1014.92
2023-06-07T09:13:01.606Z,1014.91
2023-06-07T09:14:01.551Z,1014.88
2023-06-07T09:15:01.593Z,1014.92
2023-06-07T09:16:01.616Z,1014.90
2023-06-07T09:17:01.810Z,1014.93
2023-06-07T09:18:01.758Z,1014.87
2023-06-07T09:19:01.734Z,1014.85
2023-06-07T09:20:01.804Z,1014.83
2023-06-07T09:21:01.821Z,1014.86
2023-06-07T09:22:01.849Z,1014.82
2023-06-07T09:23:01.899Z,1014.86
2023-06-07T09:24:02.190Z,1014.85
2023-06-07T09:25:01.992Z,1014.88
2023-06-07T09:26:02.007Z,1014.88
2023-06-07T09:27:02.088Z,1014.83
2023-06-07T09:28:02.090Z,1014.86
2023-06-07T09:29:02.132Z,1014.84
2023-06-07T09:30:02.398Z,1014.83
2023-06-07T09:31:02.212Z,1014.82
2023-06-07T09:32:02.240Z,1014.78
2023-06-07T09:33:02.299Z,1014.82
2023-06-07T09:34:02.329Z,1014.81
2023-06-07T09:35:02.503Z,1014.83
2023-06-07T09:36:02.439Z,1014.81
2023-06-07T09:37:02.533Z,1014.80
2023-06-07T09:38:02.495Z,1014.77
2023-06-07T09:39:02.522Z,1014.78
2023-06-07T09:40:03.017Z,1014.80
2023-06-07T09:41:03.391Z,1014.77
2023-06-07T09:42:02.636Z,1014.80
2023-06-07T09:43:02.673Z,1014.77
2023-06-07T09:44:02.770Z,1014.80
2023-06-07T09:45:02.820Z,1014.80
2023-06-07T09:46:02.852Z,1014.80
2023-06-07T09:47:05.073Z,1014.79
2023-06-07T09:48:02.969Z,1014.76
2023-06-07T09:49:03.011Z,1014.77
2023-06-07T09:50:03.210Z,1014.76
2023-06-07T09:51:02.995Z,1014.77
2023-06-07T09:52:03.104Z,1014.77
2023-06-07T09:53:03.255Z,1014.76
2023-06-07T09:54:03.118Z,1014.74
2023-06-07T09:55:03.566Z,1014.75
2023-06-07T09:56:03.192Z,1014.75
2023-06-07T09:57:03.233Z,1014.74
2023-06-07T09:58:03.272Z,1014.72
2023-06-07T09:59:03.314Z,1014.72
2023-06-07T10:00:03.892Z,1014.75
2023-06-07T10:01:03.496Z,1014.73
2023-06-07T10:02:03.474Z,1014.78
2023-06-07T10:03:03.562Z,1014.79
2023-06-07T10:04:03.576Z,1014.75
2023-06-07T10:05:03.557Z,1014.77
2023-06-07T10:06:03.594Z,1014.78
2023-06-07T10:07:03.681Z,1014.76
2023-06-07T10:08:03.674Z,1014.68
2023-06-07T10:09:03.720Z,1014.69
2023-06-07T10:10:04.833Z,1014.69
2023-06-07T10:11:03.809Z,1014.66
2023-06-07T10:12:03.848Z,1014.62
2023-06-07T10:13:03.920Z,1014.67
2023-06-07T10:14:03.997Z,1014.65
2023-06-07T10:15:03.968Z,1014.65
2023-06-07T10:16:06.676Z,1014.62
2023-06-07T10:17:04.112Z,1014.63
2023-06-07T10:18:04.105Z,1014.62
2023-06-07T10:19:04.133Z,1014.61
2023-06-07T10:20:04.422Z,1014.60
2023-06-07T10:21:04.207Z,1014.63
2023-06-07T10:22:04.244Z,1014.60
2023-06-07T10:23:04.376Z,1014.61
2023-06-07T10:24:04.387Z,1014.56
2023-06-07T10:25:04.445Z,1014.58
2023-06-07T10:26:04.441Z,1014.60
2023-06-07T10:27:04.445Z,1014.62
2023-06-07T10:28:04.523Z,1014.58
2023-06-07T10:29:04.602Z,1014.55
2023-06-07T10:30:04.962Z,1014.53
2023-06-07T10:31:04.612Z,1014.52
2023-06-07T10:32:04.736Z,1014.57
2023-06-07T10:33:04.768Z,1014.54
2023-06-07T10:34:04.797Z,1014.53
2023-06-07T10:35:04.799Z,1014.52
2023-06-07T10:36:04.901Z,1014.51
2023-06-07T10:37:04.859Z,1014.50
2023-06-07T10:38:04.902Z,1014.51
2023-06-07T10:39:04.965Z,1014.51
2023-06-07T10:40:05.227Z,1014.50
2023-06-07T10:41:05.026Z,1014.50
2023-06-07T10:42:05.063Z,1014.51
2023-06-07T10:43:05.121Z,1014.45
2023-06-07T10:44:05.146Z,1014.44
2023-06-07T10:45:05.189Z,1014.46
2023-06-07T10:46:05.274Z,1014.45
2023-06-07T10:47:05.339Z,1014.39
2023-06-07T10:48:05.401Z,1014.44
2023-06-07T10:49:05.389Z,1014.42
2023-06-07T10:50:05.580Z,1014.43
2023-06-07T10:51:05.435Z,1014.42
2023-06-07T10:52:05.483Z,1014.38
2023-06-07T10:53:05.526Z,1014.42
2023-06-07T10:54:05.558Z,1014.43
2023-06-07T10:55:05.639Z,1014.43
2023-06-07T10:56:05.728Z,1014.46
2023-06-07T10:57:05.684Z,1014.46
2023-06-07T10:58:05.722Z,1014.43
2023-06-07T10:59:05.765Z,1014.39
2023-06-07T11:00:06.040Z,1014.38
2023-06-07T11:01:05.926Z,1014.42
2023-06-07T11:02:05.933Z,1014.34
2023-06-07T11:03:06.178Z,1014.40
2023-06-07T11:04:06.176Z,1014.39
2023-06-07T11:05:06.250Z,1014.37
2023-06-07T11:06:06.444Z,1014.39
2023-06-07T11:07:06.100Z,1014.35
2023-06-07T11:08:06.147Z,1014.36
2023-06-07T11:09:06.205Z,1014.35
2023-06-07T11:10:06.806Z,1014.30
2023-06-07T11:11:06.267Z,1014.30
2023-06-07T11:12:06.323Z,1014.35
2023-06-07T11:13:06.409Z,1014.32
2023-06-07T11:14:06.394Z,1014.34
2023-06-07T11:15:06.518Z,1014.34
2023-06-07T11:16:06.499Z,1014.35
2023-06-07T11:17:06.555Z,1014.33
2023-06-07T11:18:06.882Z,1014.32
2023-06-07T11:19:06.638Z,1014.31
2023-06-07T11:20:06.920Z,1014.33
2023-06-07T11:21:06.716Z,1014.31
2023-06-07T11:22:06.795Z,1014.28
2023-06-07T11:23:06.772Z,1014.27
2023-06-07T11:24:06.863Z,1014.35
2023-06-07T11:25:06.859Z,1014.31
2023-06-07T11:26:06.994Z,1014.30
2023-06-07T11:27:07.068Z,1014.27
2023-06-07T11:28:07.036Z,1014.21
2023-06-07T11:29:07.038Z,1014.25
2023-06-07T11:30:07.336Z,1014.25
2023-06-07T11:31:14.623Z,1014.19
2023-06-07T11:33:11.234Z,1014.26
2023-06-07T11:34:11.273Z,1014.31
2023-06-07T11:36:04.267Z,1014.30
2023-06-07T11:37:04.292Z,1014.33
2023-06-07T11:39:08.384Z,1014.33
2023-06-07T11:40:08.385Z,1014.31
2023-06-07T11:42:01.365Z,1014.36
2023-06-07T11:43:01.404Z,1014.37
2023-06-07T11:44:01.453Z,1014.34
2023-06-07T11:45:01.506Z,1014.33
2023-06-07T11:46:01.536Z,1014.33
2023-06-07T11:47:01.604Z,1014.33
2023-06-07T11:48:01.720Z,1014.35
2023-06-07T11:49:01.734Z,1014.34
2023-06-07T11:50:01.729Z,1014.33
2023-06-07T11:51:01.773Z,1014.34
2023-06-07T11:52:01.789Z,1014.29
2023-06-07T11:53:01.837Z,1014.29
2023-06-07T11:54:01.878Z,1014.29
2023-06-07T11:55:01.911Z,1014.27
2023-06-07T11:56:01.972Z,1014.26
2023-06-07T11:57:02.026Z,1014.24
2023-06-07T11:58:02.053Z,1014.23
2023-06-07T11:59:02.083Z,1014.19
2023-06-07T12:00:02.134Z,1014.22
2023-06-07T12:01:02.170Z,1014.20
2023-06-07T12:02:02.250Z,1014.13
2023-06-07T12:03:02.455Z,1014.15
2023-06-07T12:04:02.459Z,1014.11
2023-06-07T12:05:02.363Z,1014.10
2023-06-07T12:06:02.378Z,1014.11
2023-06-07T12:07:02.424Z,1014.11
2023-06-07T12:08:02.464Z,1014.07
2023-06-07T12:09:02.557Z,1014.03
2023-06-07T12:10:02.736Z,1014.12
2023-06-07T12:11:02.595Z,1014.07
2023-06-07T12:12:02.636Z,1014.12
2023-06-07T12:13:02.683Z,1014.08
2023-06-07T12:14:02.721Z,1014.06
2023-06-07T12:15:02.816Z,1014.03
2023-06-07T12:16:02.848Z,1014.05